East Jordan, Michigan
Current Conditions -  °F | °C
As of 10:14 AM on Thursday 23 Oct 2014 (Local Time) from KCVX Reporting Station
Overcast Overcast  
Wind Chill: 35°   Ceiling: 1400
Heat Index: 39°   Visibility: 10mi
Dew Point: 38°   Wind: 6mph
Humidity: 98%   Direction: 160°SSE
Pressure: 30.23"   Gusts: NA
Location:  45.16°N, 85.12°W
Report Text: KCVX 231414Z AUTO 16005KT 10SM OVC014 04/04 A3023 RMK AO2 T00390036
Loading
Personal Weather Stations






























Interactive Weather Map New forecast layout! Learn more

10-Day Weather Forecast

Advertisements
Track Severe Weather on mobile